Terminal Aerodrome Forecast
Issued by NWS Duluth, MN

Home | Current Version | Previous Version | Text Only | Print | Product List | Glossary On
Versions: 1 2 3 4 5 6 7 8 9 10 11 12 13 14 15 16 17
000
FTUS43 KDLH 241100
TAFINL
TAF
KINL 241140Z 2412/2512 36004KT 4SM BR OVC002
     FM241600 VRB03KT 4SM BR OVC008
     FM250600 20004KT 5SM -SN BR SCT008 OVC012=

USA.gov is the U.S. government's official web portal to all federal, state and local government web resources and services.